Hattiesburg Laurel Regional Airport Hattiesburg,Laurel US
ICAO: KPIB
IATA: PIB
Category: Medium
Scheduled Services: Yes

Elevation: 298 ft
TransAlt. 18000 ft.

Airport Communications:
AWOS 3:128.325
HOUSTON CNTR:126.8
CTAF/UNICOM:123

KPIB Zoom In..

If you have problems with the map follow the link
https://www.worldairports.se/pages/airport.php?
ICAO=KPIB

Runways:

(A) RW 18 length 6502 ft width 150 ft
ILS 109.50 / hdg 181

(B) RW 36 length 6502 ft width 150 ft
---- / hdg 1

Location; KPIB
Day. 20 / Time. 09.56 Zulu
* Altimeter: 30.42
* Temperature: 01° c. 33.8°f.
* Wind from: 340° Speed 06 kn.
Dewpoint: -04° c.
Visibility: 10 Statute Miles.
Clouds: Clear (automated report).

KPIB 200956Z AUTO 34006KT 10SM CLR 01/M04 A3042 RMK AO2 SLP303 T00061044 FZRANO


Wind From 340°
Speed 06 kn.

 
 
jpsmedia worldairports.se 2020   terms of use